sensor_id;sensor_type;location;lat;lon;timestamp;temperature;humidity
56322;DHT22;42227;6.376;-10.782;2023-02-28T00:01:30;27.20;99.90
56322;DHT22;42227;6.376;-10.782;2023-02-28T00:03:59;27.30;99.90
56322;DHT22;42227;6.376;-10.782;2023-02-28T00:06:27;27.20;99.90
56322;DHT22;42227;6.376;-10.782;2023-02-28T00:08:56;27.20;99.90
56322;DHT22;42227;6.376;-10.782;2023-02-28T00:11:24;27.20;99.90
56322;DHT22;42227;6.376;-10.782;2023-02-28T00:13:53;27.10;99.90
56322;DHT22;42227;6.376;-10.782;2023-02-28T00:16:22;27.00;99.90
56322;DHT22;42227;6.376;-10.782;2023-02-28T00:18:50;27.10;99.90
56322;DHT22;42227;6.376;-10.782;2023-02-28T00:21:20;27.20;99.90
56322;DHT22;42227;6.376;-10.782;2023-02-28T00:23:48;27.10;99.90
56322;DHT22;42227;6.376;-10.782;2023-02-28T00:26:17;27.10;99.90
56322;DHT22;42227;6.376;-10.782;2023-02-28T00:28:49;27.10;99.90
56322;DHT22;42227;6.376;-10.782;2023-02-28T00:31:17;27.10;99.90
56322;DHT22;42227;6.376;-10.782;2023-02-28T00:33:47;27.10;99.90
56322;DHT22;42227;6.376;-10.782;2023-02-28T00:36:16;27.00;99.90
56322;DHT22;42227;6.376;-10.782;2023-02-28T00:38:44;27.10;99.90
56322;DHT22;42227;6.376;-10.782;2023-02-28T00:41:12;27.00;99.90
56322;DHT22;42227;6.376;-10.782;2023-02-28T00:43:41;27.20;99.90
56322;DHT22;42227;6.376;-10.782;2023-02-28T00:46:10;27.20;99.90
56322;DHT22;42227;6.376;-10.782;2023-02-28T00:48:39;27.10;99.90
56322;DHT22;42227;6.376;-10.782;2023-02-28T00:51:08;27.10;99.90
56322;DHT22;42227;6.376;-10.782;2023-02-28T00:53:36;27.00;99.90
56322;DHT22;42227;6.376;-10.782;2023-02-28T00:56:05;27.10;99.90
56322;DHT22;42227;6.376;-10.782;2023-02-28T00:58:34;27.00;99.90
56322;DHT22;42227;6.376;-10.782;2023-02-28T01:01:02;27.10;99.90
56322;DHT22;42227;6.376;-10.782;2023-02-28T01:03:31;27.00;99.90
56322;DHT22;42227;6.376;-10.782;2023-02-28T01:05:59;27.00;99.90
56322;DHT22;42227;6.376;-10.782;2023-02-28T01:08:28;27.00;99.90
56322;DHT22;42227;6.376;-10.782;2023-02-28T01:10:56;27.00;99.90
56322;DHT22;42227;6.376;-10.782;2023-02-28T01:13:24;26.90;99.90
56322;DHT22;42227;6.376;-10.782;2023-02-28T01:15:55;27.00;99.90
56322;DHT22;42227;6.376;-10.782;2023-02-28T01:18:24;26.90;99.90
56322;DHT22;42227;6.376;-10.782;2023-02-28T01:20:53;26.90;99.90
56322;DHT22;42227;6.376;-10.782;2023-02-28T01:23:22;26.90;99.90
56322;DHT22;42227;6.376;-10.782;2023-02-28T01:25:51;26.90;99.90
56322;DHT22;42227;6.376;-10.782;2023-02-28T01:28:19;26.90;99.90
56322;DHT22;42227;6.376;-10.782;2023-02-28T01:30:50;26.80;99.90
56322;DHT22;42227;6.376;-10.782;2023-02-28T01:33:19;26.90;99.90
56322;DHT22;42227;6.376;-10.782;2023-02-28T01:35:47;26.90;99.90
56322;DHT22;42227;6.376;-10.782;2023-02-28T01:38:16;26.80;99.90
56322;DHT22;42227;6.376;-10.782;2023-02-28T01:40:50;26.80;99.90
56322;DHT22;42227;6.376;-10.782;2023-02-28T01:43:25;26.80;99.90
56322;DHT22;42227;6.376;-10.782;2023-02-28T01:45:57;26.80;99.90
56322;DHT22;42227;6.376;-10.782;2023-02-28T01:48:28;26.80;99.90
56322;DHT22;42227;6.376;-10.782;2023-02-28T01:51:02;26.70;99.90
56322;DHT22;42227;6.376;-10.782;2023-02-28T01:53:36;26.50;99.90
56322;DHT22;42227;6.376;-10.782;2023-02-28T01:56:07;26.40;99.90
56322;DHT22;42227;6.376;-10.782;2023-02-28T01:58:36;26.30;99.90
56322;DHT22;42227;6.376;-10.782;2023-02-28T02:01:05;26.30;99.90
56322;DHT22;42227;6.376;-10.782;2023-02-28T02:03:35;26.20;99.90
56322;DHT22;42227;6.376;-10.782;2023-02-28T02:06:04;26.30;99.90
56322;DHT22;42227;6.376;-10.782;2023-02-28T02:08:32;26.20;99.90
56322;DHT22;42227;6.376;-10.782;2023-02-28T02:11:01;26.20;99.90
56322;DHT22;42227;6.376;-10.782;2023-02-28T02:24:40;25.90;99.90
56322;DHT22;42227;6.376;-10.782;2023-02-28T02:40:14;25.70;99.90
56322;DHT22;42227;6.376;-10.782;2023-02-28T02:42:56;25.70;99.90
56322;DHT22;42227;6.376;-10.782;2023-02-28T02:45:45;25.70;99.90
56322;DHT22;42227;6.376;-10.782;2023-02-28T02:48:16;25.70;99.90
56322;DHT22;42227;6.376;-10.782;2023-02-28T02:50:52;25.70;99.90
56322;DHT22;42227;6.376;-10.782;2023-02-28T02:53:29;25.70;99.90
56322;DHT22;42227;6.376;-10.782;2023-02-28T02:56:01;25.70;99.90
56322;DHT22;42227;6.376;-10.782;2023-02-28T02:58:36;25.70;99.90
56322;DHT22;42227;6.376;-10.782;2023-02-28T03:01:06;25.70;99.90
56322;DHT22;42227;6.376;-10.782;2023-02-28T03:03:35;25.70;99.90
56322;DHT22;42227;6.376;-10.782;2023-02-28T03:06:04;25.70;99.90
56322;DHT22;42227;6.376;-10.782;2023-02-28T03:08:37;25.60;99.90
56322;DHT22;42227;6.376;-10.782;2023-02-28T03:11:12;25.60;99.90
56322;DHT22;42227;6.376;-10.782;2023-02-28T03:16:28;25.60;99.90
56322;DHT22;42227;6.376;-10.782;2023-02-28T03:22:46;25.60;99.90
56322;DHT22;42227;6.376;-10.782;2023-02-28T03:25:33;25.50;99.90
56322;DHT22;42227;6.376;-10.782;2023-02-28T03:28:15;25.40;99.90
56322;DHT22;42227;6.376;-10.782;2023-02-28T03:33:45;25.50;99.90
56322;DHT22;42227;6.376;-10.782;2023-02-28T03:36:18;25.50;99.90
56322;DHT22;42227;6.376;-10.782;2023-02-28T03:41:35;25.50;99.90
56322;DHT22;42227;6.376;-10.782;2023-02-28T03:44:12;25.50;99.90
56322;DHT22;42227;6.376;-10.782;2023-02-28T03:46:51;25.50;99.90
56322;DHT22;42227;6.376;-10.782;2023-02-28T03:49:24;25.40;99.90
56322;DHT22;42227;6.376;-10.782;2023-02-28T03:51:56;25.40;99.90
56322;DHT22;42227;6.376;-10.782;2023-02-28T03:54:35;25.40;99.90
56322;DHT22;42227;6.376;-10.782;2023-02-28T03:59:59;25.30;99.90
56322;DHT22;42227;6.376;-10.782;2023-02-28T04:02:38;25.30;99.90
56322;DHT22;42227;6.376;-10.782;2023-02-28T04:05:08;25.40;99.90
56322;DHT22;42227;6.376;-10.782;2023-02-28T04:07:37;25.30;99.90
56322;DHT22;42227;6.376;-10.782;2023-02-28T04:10:06;25.30;99.90
56322;DHT22;42227;6.376;-10.782;2023-02-28T04:12:35;25.30;99.90
56322;DHT22;42227;6.376;-10.782;2023-02-28T04:15:04;25.20;99.90
56322;DHT22;42227;6.376;-10.782;2023-02-28T04:17:32;25.20;99.90
56322;DHT22;42227;6.376;-10.782;2023-02-28T04:20:00;25.20;99.90
56322;DHT22;42227;6.376;-10.782;2023-02-28T04:22:29;25.30;99.90
56322;DHT22;42227;6.376;-10.782;2023-02-28T04:24:57;25.30;99.90
56322;DHT22;42227;6.376;-10.782;2023-02-28T04:27:25;25.40;99.90
56322;DHT22;42227;6.376;-10.782;2023-02-28T04:29:53;25.40;99.90
56322;DHT22;42227;6.376;-10.782;2023-02-28T04:32:22;25.40;99.90
56322;DHT22;42227;6.376;-10.782;2023-02-28T04:34:50;25.50;99.90
56322;DHT22;42227;6.376;-10.782;2023-02-28T04:37:18;25.40;99.90
56322;DHT22;42227;6.376;-10.782;2023-02-28T04:39:46;25.40;99.90
56322;DHT22;42227;6.376;-10.782;2023-02-28T04:42:15;25.40;99.90
56322;DHT22;42227;6.376;-10.782;2023-02-28T04:44:43;25.40;99.90
56322;DHT22;42227;6.376;-10.782;2023-02-28T04:47:12;25.50;99.90
56322;DHT22;42227;6.376;-10.782;2023-02-28T04:49:40;25.50;99.90
56322;DHT22;42227;6.376;-10.782;2023-02-28T04:52:09;25.50;99.90
56322;DHT22;42227;6.376;-10.782;2023-02-28T04:54:37;25.50;99.90
56322;DHT22;42227;6.376;-10.782;2023-02-28T04:57:05;25.50;99.90
56322;DHT22;42227;6.376;-10.782;2023-02-28T04:59:33;25.50;99.90
56322;DHT22;42227;6.376;-10.782;2023-02-28T05:02:02;25.40;99.90
56322;DHT22;42227;6.376;-10.782;2023-02-28T05:04:30;25.30;99.90
56322;DHT22;42227;6.376;-10.782;2023-02-28T05:06:58;25.30;99.90
56322;DHT22;42227;6.376;-10.782;2023-02-28T05:09:27;25.40;99.90
56322;DHT22;42227;6.376;-10.782;2023-02-28T05:11:55;25.40;99.90
56322;DHT22;42227;6.376;-10.782;2023-02-28T05:14:23;25.40;99.90
56322;DHT22;42227;6.376;-10.782;2023-02-28T05:16:52;25.50;99.90
56322;DHT22;42227;6.376;-10.782;2023-02-28T05:19:20;25.50;99.90
56322;DHT22;42227;6.376;-10.782;2023-02-28T05:21:52;25.50;99.90
56322;DHT22;42227;6.376;-10.782;2023-02-28T05:24:21;25.50;99.90
56322;DHT22;42227;6.376;-10.782;2023-02-28T05:26:51;25.50;99.90
56322;DHT22;42227;6.376;-10.782;2023-02-28T05:29:19;25.40;99.90
56322;DHT22;42227;6.376;-10.782;2023-02-28T05:31:48;25.30;99.90
56322;DHT22;42227;6.376;-10.782;2023-02-28T05:34:16;25.30;99.90
56322;DHT22;42227;6.376;-10.782;2023-02-28T05:36:45;25.20;99.90
56322;DHT22;42227;6.376;-10.782;2023-02-28T05:39:13;25.20;99.90
56322;DHT22;42227;6.376;-10.782;2023-02-28T05:41:42;25.20;99.90
56322;DHT22;42227;6.376;-10.782;2023-02-28T05:44:11;25.20;99.90
56322;DHT22;42227;6.376;-10.782;2023-02-28T05:46:39;25.10;99.90
56322;DHT22;42227;6.376;-10.782;2023-02-28T05:49:07;25.10;99.90
56322;DHT22;42227;6.376;-10.782;2023-02-28T05:51:35;25.10;99.90
56322;DHT22;42227;6.376;-10.782;2023-02-28T05:54:04;25.10;99.90
56322;DHT22;42227;6.376;-10.782;2023-02-28T05:56:33;25.10;99.90
56322;DHT22;42227;6.376;-10.782;2023-02-28T05:59:01;25.10;99.90
56322;DHT22;42227;6.376;-10.782;2023-02-28T06:01:34;25.00;99.90
56322;DHT22;42227;6.376;-10.782;2023-02-28T06:04:04;25.10;99.90
56322;DHT22;42227;6.376;-10.782;2023-02-28T06:06:33;25.10;99.90
56322;DHT22;42227;6.376;-10.782;2023-02-28T06:09:06;25.10;99.90
56322;DHT22;42227;6.376;-10.782;2023-02-28T06:11:35;25.00;99.90
56322;DHT22;42227;6.376;-10.782;2023-02-28T06:14:04;25.00;99.90
56322;DHT22;42227;6.376;-10.782;2023-02-28T06:16:34;25.00;99.90
56322;DHT22;42227;6.376;-10.782;2023-02-28T06:19:04;25.00;99.90
56322;DHT22;42227;6.376;-10.782;2023-02-28T06:21:32;25.00;99.90
56322;DHT22;42227;6.376;-10.782;2023-02-28T06:24:01;25.00;99.90
56322;DHT22;42227;6.376;-10.782;2023-02-28T06:26:30;25.00;99.90
56322;DHT22;42227;6.376;-10.782;2023-02-28T06:28:58;25.00;99.90
56322;DHT22;42227;6.376;-10.782;2023-02-28T06:31:27;25.00;99.90
56322;DHT22;42227;6.376;-10.782;2023-02-28T06:33:55;25.00;99.90
56322;DHT22;42227;6.376;-10.782;2023-02-28T06:36:24;25.10;99.90
56322;DHT22;42227;6.376;-10.782;2023-02-28T06:38:52;25.00;99.90
56322;DHT22;42227;6.376;-10.782;2023-02-28T06:41:25;25.00;99.90
56322;DHT22;42227;6.376;-10.782;2023-02-28T06:43:54;25.00;99.90
56322;DHT22;42227;6.376;-10.782;2023-02-28T06:46:23;25.00;99.90
56322;DHT22;42227;6.376;-10.782;2023-02-28T06:48:51;25.00;99.90
56322;DHT22;42227;6.376;-10.782;2023-02-28T06:51:20;25.00;99.90
56322;DHT22;42227;6.376;-10.782;2023-02-28T06:53:48;25.00;99.90
56322;DHT22;42227;6.376;-10.782;2023-02-28T06:56:18;25.00;99.90
56322;DHT22;42227;6.376;-10.782;2023-02-28T06:58:47;25.10;99.90
56322;DHT22;42227;6.376;-10.782;2023-02-28T07:01:16;25.10;99.90
56322;DHT22;42227;6.376;-10.782;2023-02-28T07:03:45;25.10;99.90
56322;DHT22;42227;6.376;-10.782;2023-02-28T07:06:14;25.10;99.90
56322;DHT22;42227;6.376;-10.782;2023-02-28T07:08:42;25.10;99.90
56322;DHT22;42227;6.376;-10.782;2023-02-28T07:11:10;25.10;99.90
56322;DHT22;42227;6.376;-10.782;2023-02-28T07:13:38;25.00;99.90
56322;DHT22;42227;6.376;-10.782;2023-02-28T07:16:10;25.10;99.90
56322;DHT22;42227;6.376;-10.782;2023-02-28T07:18:38;25.00;99.90
56322;DHT22;42227;6.376;-10.782;2023-02-28T07:21:09;25.20;99.90
56322;DHT22;42227;6.376;-10.782;2023-02-28T07:23:39;25.20;99.90
56322;DHT22;42227;6.376;-10.782;2023-02-28T07:26:12;25.10;99.90
56322;DHT22;42227;6.376;-10.782;2023-02-28T07:28:41;25.30;99.90
56322;DHT22;42227;6.376;-10.782;2023-02-28T07:31:11;25.30;99.90
56322;DHT22;42227;6.376;-10.782;2023-02-28T07:33:40;25.50;99.90
56322;DHT22;42227;6.376;-10.782;2023-02-28T07:36:15;25.90;99.90
56322;DHT22;42227;6.376;-10.782;2023-02-28T07:38:45;26.30;99.90
56322;DHT22;42227;6.376;-10.782;2023-02-28T07:41:19;26.80;99.90
56322;DHT22;42227;6.376;-10.782;2023-02-28T07:43:48;27.20;99.90
56322;DHT22;42227;6.376;-10.782;2023-02-28T07:46:18;27.80;99.90
56322;DHT22;42227;6.376;-10.782;2023-02-28T07:48:46;28.30;99.90
56322;DHT22;42227;6.376;-10.782;2023-02-28T07:51:15;28.80;99.90
56322;DHT22;42227;6.376;-10.782;2023-02-28T07:53:43;29.00;99.90
56322;DHT22;42227;6.376;-10.782;2023-02-28T07:56:11;29.50;99.90
56322;DHT22;42227;6.376;-10.782;2023-02-28T07:58:39;30.10;99.90
56322;DHT22;42227;6.376;-10.782;2023-02-28T08:01:09;30.50;99.90
56322;DHT22;42227;6.376;-10.782;2023-02-28T08:03:38;30.80;99.90
56322;DHT22;42227;6.376;-10.782;2023-02-28T08:06:16;31.20;99.90
56322;DHT22;42227;6.376;-10.782;2023-02-28T08:08:45;31.70;99.90
56322;DHT22;42227;6.376;-10.782;2023-02-28T08:11:14;31.70;99.90
56322;DHT22;42227;6.376;-10.782;2023-02-28T08:13:43;32.50;99.90
56322;DHT22;42227;6.376;-10.782;2023-02-28T08:16:13;32.90;99.90
56322;DHT22;42227;6.376;-10.782;2023-02-28T08:18:42;34.00;99.90
56322;DHT22;42227;6.376;-10.782;2023-02-28T08:21:10;34.00;99.90
56322;DHT22;42227;6.376;-10.782;2023-02-28T08:23:39;34.20;99.90
56322;DHT22;42227;6.376;-10.782;2023-02-28T08:26:07;34.60;99.90
56322;DHT22;42227;6.376;-10.782;2023-02-28T08:28:35;34.80;99.90
56322;DHT22;42227;6.376;-10.782;2023-02-28T08:31:08;34.90;99.90
56322;DHT22;42227;6.376;-10.782;2023-02-28T08:33:38;34.90;99.90
56322;DHT22;42227;6.376;-10.782;2023-02-28T08:36:07;35.90;99.80
56322;DHT22;42227;6.376;-10.782;2023-02-28T08:38:37;35.90;99.40
56322;DHT22;42227;6.376;-10.782;2023-02-28T08:41:07;36.50;98.70
56322;DHT22;42227;6.376;-10.782;2023-02-28T08:43:36;37.30;97.20
56322;DHT22;42227;6.376;-10.782;2023-02-28T08:46:05;37.30;96.70
56322;DHT22;42227;6.376;-10.782;2023-02-28T08:48:35;37.40;96.70
56322;DHT22;42227;6.376;-10.782;2023-02-28T08:51:06;37.40;96.50
56322;DHT22;42227;6.376;-10.782;2023-02-28T08:53:36;38.10;95.60
56322;DHT22;42227;6.376;-10.782;2023-02-28T08:56:07;38.20;95.10
56322;DHT22;42227;6.376;-10.782;2023-02-28T08:58:36;38.60;94.30
56322;DHT22;42227;6.376;-10.782;2023-02-28T09:01:10;37.90;94.70
56322;DHT22;42227;6.376;-10.782;2023-02-28T09:03:39;37.90;95.20
56322;DHT22;42227;6.376;-10.782;2023-02-28T09:06:08;38.10;95.10
56322;DHT22;42227;6.376;-10.782;2023-02-28T09:08:37;38.70;93.70
56322;DHT22;42227;6.376;-10.782;2023-02-28T09:11:06;39.50;92.30
56322;DHT22;42227;6.376;-10.782;2023-02-28T09:13:34;39.60;91.80
56322;DHT22;42227;6.376;-10.782;2023-02-28T09:16:04;39.10;92.90
56322;DHT22;42227;6.376;-10.782;2023-02-28T09:18:36;37.40;95.10
56322;DHT22;42227;6.376;-10.782;2023-02-28T09:21:06;37.90;94.10
56322;DHT22;42227;6.376;-10.782;2023-02-28T09:23:35;39.30;93.00
56322;DHT22;42227;6.376;-10.782;2023-02-28T09:26:07;39.30;92.50
56322;DHT22;42227;6.376;-10.782;2023-02-28T09:28:35;39.40;92.90
56322;DHT22;42227;6.376;-10.782;2023-02-28T09:31:04;39.20;92.20
56322;DHT22;42227;6.376;-10.782;2023-02-28T09:33:32;39.30;92.70
56322;DHT22;42227;6.376;-10.782;2023-02-28T09:36:02;37.20;96.00
56322;DHT22;42227;6.376;-10.782;2023-02-28T09:38:30;36.00;98.20
56322;DHT22;42227;6.376;-10.782;2023-02-28T09:41:02;35.70;98.80
56322;DHT22;42227;6.376;-10.782;2023-02-28T09:43:37;35.20;99.80
56322;DHT22;42227;6.376;-10.782;2023-02-28T09:49:01;35.30;99.60
56322;DHT22;42227;6.376;-10.782;2023-02-28T09:54:17;34.70;99.90
56322;DHT22;42227;6.376;-10.782;2023-02-28T10:05:41;34.50;99.90
56322;DHT22;42227;6.376;-10.782;2023-02-28T10:08:37;34.00;99.90
56322;DHT22;42227;6.376;-10.782;2023-02-28T10:11:09;33.90;99.90
56322;DHT22;42227;6.376;-10.782;2023-02-28T10:14:13;34.40;99.90
56322;DHT22;42227;6.376;-10.782;2023-02-28T10:16:47;34.30;99.90
56322;DHT22;42227;6.376;-10.782;2023-02-28T10:24:36;34.00;99.90
56322;DHT22;42227;6.376;-10.782;2023-02-28T10:27:21;34.30;99.90
56322;DHT22;42227;6.376;-10.782;2023-02-28T10:29:51;34.00;99.90
56322;DHT22;42227;6.376;-10.782;2023-02-28T10:32:26;34.30;99.90
56322;DHT22;42227;6.376;-10.782;2023-02-28T10:35:21;34.40;99.90
56322;DHT22;42227;6.376;-10.782;2023-02-28T10:37:53;34.10;99.90
56322;DHT22;42227;6.376;-10.782;2023-02-28T10:43:21;34.00;99.90
56322;DHT22;42227;6.376;-10.782;2023-02-28T10:48:38;33.70;99.90
56322;DHT22;42227;6.376;-10.782;2023-02-28T10:51:10;33.70;99.90
56322;DHT22;42227;6.376;-10.782;2023-02-28T10:53:48;33.80;99.90
56322;DHT22;42227;6.376;-10.782;2023-02-28T10:56:28;33.90;99.90
56322;DHT22;42227;6.376;-10.782;2023-02-28T10:59:03;34.00;99.90
56322;DHT22;42227;6.376;-10.782;2023-02-28T11:01:39;34.00;99.90
56322;DHT22;42227;6.376;-10.782;2023-02-28T11:09:36;33.70;99.90
56322;DHT22;42227;6.376;-10.782;2023-02-28T11:12:08;33.40;99.90
56322;DHT22;42227;6.376;-10.782;2023-02-28T11:14:49;33.30;99.90
56322;DHT22;42227;6.376;-10.782;2023-02-28T11:17:24;33.70;99.90
56322;DHT22;42227;6.376;-10.782;2023-02-28T11:19:57;33.50;99.90
56322;DHT22;42227;6.376;-10.782;2023-02-28T11:22:29;33.40;99.90
56322;DHT22;42227;6.376;-10.782;2023-02-28T11:25:15;33.50;99.90
56322;DHT22;42227;6.376;-10.782;2023-02-28T11:27:47;33.30;99.90
56322;DHT22;42227;6.376;-10.782;2023-02-28T11:32:59;33.30;99.90
56322;DHT22;42227;6.376;-10.782;2023-02-28T11:35:35;33.40;99.90
56322;DHT22;42227;6.376;-10.782;2023-02-28T11:38:09;33.20;99.90
56322;DHT22;42227;6.376;-10.782;2023-02-28T11:46:31;33.00;99.90
56322;DHT22;42227;6.376;-10.782;2023-02-28T11:52:05;33.50;99.90
56322;DHT22;42227;6.376;-10.782;2023-02-28T11:54:53;33.50;99.90
56322;DHT22;42227;6.376;-10.782;2023-02-28T12:06:22;33.70;99.90
56322;DHT22;42227;6.376;-10.782;2023-02-28T12:22:36;33.40;99.90
56322;DHT22;42227;6.376;-10.782;2023-02-28T12:27:40;33.00;99.90
56322;DHT22;42227;6.376;-10.782;2023-02-28T12:30:28;32.80;99.90
56322;DHT22;42227;6.376;-10.782;2023-02-28T12:33:09;32.90;99.90
56322;DHT22;42227;6.376;-10.782;2023-02-28T12:35:55;33.30;99.90
56322;DHT22;42227;6.376;-10.782;2023-02-28T12:38:37;33.40;99.90
56322;DHT22;42227;6.376;-10.782;2023-02-28T12:41:39;33.30;99.90
56322;DHT22;42227;6.376;-10.782;2023-02-28T12:44:34;33.20;99.90
56322;DHT22;42227;6.376;-10.782;2023-02-28T12:47:09;33.00;99.90
56322;DHT22;42227;6.376;-10.782;2023-02-28T12:50:04;33.10;99.90
56322;DHT22;42227;6.376;-10.782;2023-02-28T12:56:00;32.80;99.90
56322;DHT22;42227;6.376;-10.782;2023-02-28T12:58:40;33.00;99.90
56322;DHT22;42227;6.376;-10.782;2023-02-28T13:09:28;32.90;99.90
56322;DHT22;42227;6.376;-10.782;2023-02-28T13:11:58;33.00;99.90
56322;DHT22;42227;6.376;-10.782;2023-02-28T13:19:29;32.90;99.90
56322;DHT22;42227;6.376;-10.782;2023-02-28T13:21:58;32.80;99.90
56322;DHT22;42227;6.376;-10.782;2023-02-28T13:29:44;32.80;99.90
56322;DHT22;42227;6.376;-10.782;2023-02-28T13:37:41;33.20;99.90
56322;DHT22;42227;6.376;-10.782;2023-02-28T13:47:51;32.80;99.90
56322;DHT22;42227;6.376;-10.782;2023-02-28T13:56:29;32.50;99.90
56322;DHT22;42227;6.376;-10.782;2023-02-28T13:59:19;32.20;99.90
56322;DHT22;42227;6.376;-10.782;2023-02-28T14:02:25;32.60;99.90
56322;DHT22;42227;6.376;-10.782;2023-02-28T14:05:28;32.20;99.90
56322;DHT22;42227;6.376;-10.782;2023-02-28T14:08:13;32.40;99.90
56322;DHT22;42227;6.376;-10.782;2023-02-28T14:10:45;32.50;99.90
56322;DHT22;42227;6.376;-10.782;2023-02-28T14:16:07;32.50;99.90
56322;DHT22;42227;6.376;-10.782;2023-02-28T14:18:38;32.30;99.90
56322;DHT22;42227;6.376;-10.782;2023-02-28T14:21:35;32.50;99.90
56322;DHT22;42227;6.376;-10.782;2023-02-28T14:24:42;32.40;99.90
56322;DHT22;42227;6.376;-10.782;2023-02-28T14:27:49;32.10;99.90
56322;DHT22;42227;6.376;-10.782;2023-02-28T14:30:59;32.10;99.90
56322;DHT22;42227;6.376;-10.782;2023-02-28T14:38:53;32.10;99.90
56322;DHT22;42227;6.376;-10.782;2023-02-28T14:41:37;32.00;99.90
56322;DHT22;42227;6.376;-10.782;2023-02-28T14:44:25;32.10;99.90
56322;DHT22;42227;6.376;-10.782;2023-02-28T14:47:00;32.20;99.90
56322;DHT22;42227;6.376;-10.782;2023-02-28T14:49:41;32.20;99.90
56322;DHT22;42227;6.376;-10.782;2023-02-28T14:52:15;32.20;99.90
56322;DHT22;42227;6.376;-10.782;2023-02-28T14:54:45;32.20;99.90
56322;DHT22;42227;6.376;-10.782;2023-02-28T14:57:28;31.70;99.90
56322;DHT22;42227;6.376;-10.782;2023-02-28T15:02:52;31.80;99.90
56322;DHT22;42227;6.376;-10.782;2023-02-28T15:05:30;31.70;99.90
56322;DHT22;42227;6.376;-10.782;2023-02-28T15:08:14;31.90;99.90
56322;DHT22;42227;6.376;-10.782;2023-02-28T15:13:20;31.60;99.90
56322;DHT22;42227;6.376;-10.782;2023-02-28T15:15:59;31.70;99.90
56322;DHT22;42227;6.376;-10.782;2023-02-28T15:24:02;31.70;99.90
56322;DHT22;42227;6.376;-10.782;2023-02-28T15:26:41;31.80;99.90
56322;DHT22;42227;6.376;-10.782;2023-02-28T15:29:20;31.90;99.90
56322;DHT22;42227;6.376;-10.782;2023-02-28T15:31:55;31.70;99.90
56322;DHT22;42227;6.376;-10.782;2023-02-28T15:34:38;31.50;99.90
56322;DHT22;42227;6.376;-10.782;2023-02-28T15:43:17;31.40;99.90
56322;DHT22;42227;6.376;-10.782;2023-02-28T15:45:47;31.90;99.90
56322;DHT22;42227;6.376;-10.782;2023-02-28T15:50:58;31.30;99.90
56322;DHT22;42227;6.376;-10.782;2023-02-28T15:53:54;31.20;99.90
56322;DHT22;42227;6.376;-10.782;2023-02-28T15:59:05;31.20;99.90
56322;DHT22;42227;6.376;-10.782;2023-02-28T16:01:40;31.10;99.90
56322;DHT22;42227;6.376;-10.782;2023-02-28T16:04:19;31.00;99.90
56322;DHT22;42227;6.376;-10.782;2023-02-28T16:09:26;30.90;99.90
56322;DHT22;42227;6.376;-10.782;2023-02-28T16:11:56;30.90;99.90
56322;DHT22;42227;6.376;-10.782;2023-02-28T16:14:28;31.10;99.90
56322;DHT22;42227;6.376;-10.782;2023-02-28T16:17:04;31.30;99.90
56322;DHT22;42227;6.376;-10.782;2023-02-28T16:19:33;31.30;99.90
56322;DHT22;42227;6.376;-10.782;2023-02-28T16:22:01;31.20;99.90
56322;DHT22;42227;6.376;-10.782;2023-02-28T16:24:30;31.20;99.90
56322;DHT22;42227;6.376;-10.782;2023-02-28T16:26:58;30.90;99.90
56322;DHT22;42227;6.376;-10.782;2023-02-28T16:29:31;30.80;99.90
56322;DHT22;42227;6.376;-10.782;2023-02-28T16:32:01;30.80;99.90
56322;DHT22;42227;6.376;-10.782;2023-02-28T16:34:29;30.80;99.90
56322;DHT22;42227;6.376;-10.782;2023-02-28T16:36:58;30.80;99.90
56322;DHT22;42227;6.376;-10.782;2023-02-28T16:39:26;30.80;99.90
56322;DHT22;42227;6.376;-10.782;2023-02-28T16:41:55;31.10;99.90
56322;DHT22;42227;6.376;-10.782;2023-02-28T16:44:34;31.20;99.90
56322;DHT22;42227;6.376;-10.782;2023-02-28T16:47:04;31.20;99.90
56322;DHT22;42227;6.376;-10.782;2023-02-28T16:49:32;31.00;99.90
56322;DHT22;42227;6.376;-10.782;2023-02-28T16:52:00;30.90;99.90
56322;DHT22;42227;6.376;-10.782;2023-02-28T16:54:29;31.00;99.90
56322;DHT22;42227;6.376;-10.782;2023-02-28T16:56:57;31.10;99.90
56322;DHT22;42227;6.376;-10.782;2023-02-28T16:59:27;30.80;99.90
56322;DHT22;42227;6.376;-10.782;2023-02-28T17:01:56;30.50;99.90
56322;DHT22;42227;6.376;-10.782;2023-02-28T17:04:27;30.70;99.90
56322;DHT22;42227;6.376;-10.782;2023-02-28T17:06:59;30.40;99.90
56322;DHT22;42227;6.376;-10.782;2023-02-28T17:09:27;30.30;99.90
56322;DHT22;42227;6.376;-10.782;2023-02-28T17:12:08;30.40;99.90
56322;DHT22;42227;6.376;-10.782;2023-02-28T17:14:37;30.50;99.90
56322;DHT22;42227;6.376;-10.782;2023-02-28T17:17:06;30.30;99.90
56322;DHT22;42227;6.376;-10.782;2023-02-28T17:19:35;30.20;99.90
56322;DHT22;42227;6.376;-10.782;2023-02-28T17:22:03;30.10;99.90
56322;DHT22;42227;6.376;-10.782;2023-02-28T17:24:31;30.40;99.90
56322;DHT22;42227;6.376;-10.782;2023-02-28T17:27:00;30.10;99.90
56322;DHT22;42227;6.376;-10.782;2023-02-28T17:29:28;30.10;99.90
56322;DHT22;42227;6.376;-10.782;2023-02-28T17:31:56;29.90;99.90
56322;DHT22;42227;6.376;-10.782;2023-02-28T17:34:29;30.00;99.90
56322;DHT22;42227;6.376;-10.782;2023-02-28T17:36:57;30.00;99.90
56322;DHT22;42227;6.376;-10.782;2023-02-28T17:39:25;29.90;99.90
56322;DHT22;42227;6.376;-10.782;2023-02-28T17:41:55;29.70;99.90
56322;DHT22;42227;6.376;-10.782;2023-02-28T17:44:24;29.80;99.90
56322;DHT22;42227;6.376;-10.782;2023-02-28T17:46:54;29.80;99.90
56322;DHT22;42227;6.376;-10.782;2023-02-28T17:49:23;29.70;99.90
56322;DHT22;42227;6.376;-10.782;2023-02-28T17:51:51;29.60;99.90
56322;DHT22;42227;6.376;-10.782;2023-02-28T17:54:19;29.60;99.90
56322;DHT22;42227;6.376;-10.782;2023-02-28T17:56:48;29.60;99.90
56322;DHT22;42227;6.376;-10.782;2023-02-28T17:59:16;29.40;99.90
56322;DHT22;42227;6.376;-10.782;2023-02-28T18:01:44;29.30;99.90
56322;DHT22;42227;6.376;-10.782;2023-02-28T18:04:13;29.50;99.90
56322;DHT22;42227;6.376;-10.782;2023-02-28T18:06:43;29.60;99.90
56322;DHT22;42227;6.376;-10.782;2023-02-28T18:09:14;29.40;99.90
56322;DHT22;42227;6.376;-10.782;2023-02-28T18:11:43;29.30;99.90
56322;DHT22;42227;6.376;-10.782;2023-02-28T18:14:11;29.30;99.90
56322;DHT22;42227;6.376;-10.782;2023-02-28T18:30:04;29.10;99.90
56322;DHT22;42227;6.376;-10.782;2023-02-28T18:32:32;28.70;99.90
56322;DHT22;42227;6.376;-10.782;2023-02-28T18:35:00;28.60;99.90
56322;DHT22;42227;6.376;-10.782;2023-02-28T18:37:29;28.50;99.90
56322;DHT22;42227;6.376;-10.782;2023-02-28T18:39:57;28.50;99.90
56322;DHT22;42227;6.376;-10.782;2023-02-28T18:42:25;28.60;99.90
56322;DHT22;42227;6.376;-10.782;2023-02-28T18:44:53;28.60;99.90
56322;DHT22;42227;6.376;-10.782;2023-02-28T18:47:22;28.50;99.90
56322;DHT22;42227;6.376;-10.782;2023-02-28T18:49:50;28.50;99.90
56322;DHT22;42227;6.376;-10.782;2023-02-28T18:52:19;28.40;99.90
56322;DHT22;42227;6.376;-10.782;2023-02-28T18:54:47;28.30;99.90
56322;DHT22;42227;6.376;-10.782;2023-02-28T18:57:15;28.20;99.90
56322;DHT22;42227;6.376;-10.782;2023-02-28T18:59:43;28.30;99.90